createdAt,value
2022-12-16T00:00:12.108Z,15.57
2022-12-16T00:02:39.296Z,15.60
2022-12-16T00:05:06.728Z,15.87
2022-12-16T00:07:35.345Z,16.30
2022-12-16T00:10:02.709Z,14.10
2022-12-16T00:12:29.702Z,15.07
2022-12-16T00:14:56.597Z,15.50
2022-12-16T00:17:23.557Z,13.83
2022-12-16T00:19:50.466Z,13.40
2022-12-16T00:22:17.550Z,14.40
2022-12-16T00:24:44.727Z,12.90
2022-12-16T00:27:11.604Z,13.87
2022-12-16T00:29:39.054Z,13.20
2022-12-16T00:32:06.383Z,13.57
2022-12-16T00:34:33.384Z,12.60
2022-12-16T00:37:00.297Z,12.30
2022-12-16T00:39:27.207Z,12.70
2022-12-16T00:41:54.127Z,11.47
2022-12-16T00:44:21.890Z,11.07
2022-12-16T00:46:48.801Z,14.67
2022-12-16T00:49:15.818Z,11.90
2022-12-16T00:51:42.783Z,12.07
2022-12-16T00:54:09.678Z,11.07
2022-12-16T00:56:36.996Z,14.00
2022-12-16T00:59:03.906Z,11.33
2022-12-16T01:01:30.906Z,11.20
2022-12-16T01:03:58.079Z,11.47
2022-12-16T01:06:25.141Z,12.83
2022-12-16T01:08:52.044Z,12.47
2022-12-16T01:11:20.715Z,11.40
2022-12-16T01:13:51.901Z,11.57
2022-12-16T01:16:19.708Z,12.60
2022-12-16T01:18:46.840Z,10.30
2022-12-16T01:21:15.749Z,11.30
2022-12-16T01:23:43.055Z,10.87
2022-12-16T01:26:16.239Z,10.60
2022-12-16T01:28:43.088Z,10.77
2022-12-16T01:31:10.799Z,11.40
2022-12-16T01:33:37.680Z,12.10
2022-12-16T01:36:08.878Z,11.00
2022-12-16T01:38:36.911Z,12.30
2022-12-16T01:41:05.164Z,11.20
2022-12-16T01:43:36.881Z,12.57
2022-12-16T01:46:25.065Z,12.27
2022-12-16T01:49:05.545Z,11.43
2022-12-16T01:51:48.979Z,11.23
2022-12-16T01:54:31.563Z,10.47
2022-12-16T01:57:04.524Z,11.87
2022-12-16T01:59:32.973Z,11.07
2022-12-16T02:02:00.494Z,11.60
2022-12-16T02:04:30.138Z,11.77
2022-12-16T02:06:58.181Z,10.57
2022-12-16T02:09:25.601Z,11.53
2022-12-16T02:12:30.362Z,11.60
2022-12-16T02:15:22.239Z,11.57
2022-12-16T02:18:00.904Z,12.10
2022-12-16T02:21:20.721Z,11.30
2022-12-16T02:24:30.910Z,10.70
2022-12-16T02:27:29.920Z,12.23
2022-12-16T02:30:31.821Z,11.60
2022-12-16T02:33:34.857Z,11.87
2022-12-16T02:36:10.817Z,12.27
2022-12-16T02:39:02.334Z,11.60
2022-12-16T02:41:47.595Z,12.17
2022-12-16T02:44:16.501Z,11.20
2022-12-16T02:46:55.960Z,11.50
2022-12-16T02:49:22.681Z,10.93
2022-12-16T02:51:50.397Z,11.53
2022-12-16T02:54:18.923Z,11.80
2022-12-16T02:57:37.694Z,11.70
2022-12-16T03:00:14.214Z,10.10
2022-12-16T03:03:02.034Z,11.30
2022-12-16T03:05:41.046Z,11.87
2022-12-16T03:08:29.785Z,10.83
2022-12-16T03:11:02.128Z,10.23
2022-12-16T03:13:40.485Z,9.93
2022-12-16T03:16:10.844Z,10.20
2022-12-16T03:18:43.264Z,9.97
2022-12-16T03:21:12.636Z,10.33
2022-12-16T03:23:55.606Z,9.97
2022-12-16T03:26:30.835Z,9.17
2022-12-16T03:29:25.661Z,9.33
2022-12-16T03:32:09.993Z,7.97
2022-12-16T03:34:47.023Z,8.37
2022-12-16T03:37:14.437Z,9.10
2022-12-16T03:39:49.493Z,8.80
2022-12-16T03:42:16.721Z,8.40
2022-12-16T03:44:48.968Z,8.90
2022-12-16T03:47:21.667Z,8.60
2022-12-16T03:49:50.548Z,8.10
2022-12-16T03:52:17.445Z,7.90
2022-12-16T03:54:44.312Z,8.20
2022-12-16T03:57:15.391Z,7.77
2022-12-16T03:59:43.134Z,7.10
2022-12-16T04:02:10.243Z,7.93
2022-12-16T04:04:37.310Z,6.83
2022-12-16T04:07:22.137Z,7.37
2022-12-16T04:09:50.257Z,7.97
2022-12-16T04:12:36.155Z,8.17
2022-12-16T04:15:39.009Z,7.20
2022-12-16T04:18:27.341Z,6.80
2022-12-16T04:21:15.318Z,8.30
2022-12-16T04:24:11.687Z,6.40
2022-12-16T04:26:56.920Z,7.50
2022-12-16T04:29:24.516Z,7.00
2022-12-16T04:31:52.365Z,6.63
2022-12-16T04:34:26.393Z,6.93
2022-12-16T04:37:21.220Z,6.90
2022-12-16T04:40:06.419Z,7.10
2022-12-16T04:42:52.215Z,7.27
2022-12-16T04:45:37.429Z,6.43
2022-12-16T04:48:23.190Z,6.93
2022-12-16T04:51:25.035Z,20.37
2022-12-16T04:54:10.664Z,44.83
2022-12-16T04:57:00.438Z,32.37
2022-12-16T04:59:45.711Z,55.97
2022-12-16T05:02:31.223Z,47.43
2022-12-16T05:05:16.572Z,12.90
2022-12-16T05:08:01.809Z,7.77
2022-12-16T05:10:47.280Z,7.37
2022-12-16T05:13:32.812Z,7.73
2022-12-16T05:16:18.465Z,8.00
2022-12-16T05:19:03.689Z,7.13
2022-12-16T05:21:48.864Z,7.17
2022-12-16T05:24:34.099Z,6.77
2022-12-16T05:27:19.237Z,7.60
2022-12-16T05:30:04.462Z,7.67
2022-12-16T05:32:49.771Z,6.90
2022-12-16T05:35:36.116Z,7.90
2022-12-16T05:38:21.429Z,6.80
2022-12-16T05:41:07.256Z,7.17
2022-12-16T05:43:52.465Z,70.23
2022-12-16T05:46:38.050Z,23.53
2022-12-16T05:49:23.334Z,11.70
2022-12-16T05:52:08.793Z,6.83
2022-12-16T05:54:53.973Z,6.90
2022-12-16T05:57:39.145Z,7.03
2022-12-16T06:00:25.358Z,6.37
2022-12-16T06:03:10.530Z,6.23
2022-12-16T06:05:55.816Z,5.63
2022-12-16T06:08:40.983Z,6.70
2022-12-16T06:11:26.301Z,7.17
2022-12-16T06:14:28.629Z,6.10
2022-12-16T06:17:14.290Z,13.90
2022-12-16T06:19:59.460Z,11.73
2022-12-16T06:22:44.592Z,9.57
2022-12-16T06:25:29.909Z,7.20
2022-12-16T06:28:15.038Z,6.40
2022-12-16T06:31:00.370Z,6.60
2022-12-16T06:33:45.636Z,6.30
2022-12-16T06:36:31.484Z,6.43
2022-12-16T06:39:16.754Z,6.17
2022-12-16T06:42:01.863Z,5.87
2022-12-16T06:44:46.997Z,6.20
2022-12-16T06:47:32.498Z,5.10
2022-12-16T06:50:17.941Z,6.10
2022-12-16T06:53:03.359Z,16.00
2022-12-16T06:55:48.921Z,60.20
2022-12-16T06:58:34.674Z,20.43
2022-12-16T07:01:20.115Z,9.27
2022-12-16T07:04:05.634Z,6.50
2022-12-16T07:06:51.408Z,7.17
2022-12-16T07:09:56.342Z,6.97
2022-12-16T07:12:42.191Z,6.53
2022-12-16T07:15:28.344Z,7.50
2022-12-16T07:18:13.525Z,6.20
2022-12-16T07:20:58.748Z,6.73
2022-12-16T07:23:43.912Z,6.40
2022-12-16T07:26:29.372Z,6.37
2022-12-16T07:29:14.959Z,8.03
2022-12-16T07:32:00.497Z,7.90
2022-12-16T07:34:49.962Z,6.27
2022-12-16T07:37:36.451Z,7.33
2022-12-16T07:40:22.751Z,8.33
2022-12-16T07:43:08.085Z,9.40
2022-12-16T07:45:53.962Z,9.37
2022-12-16T07:48:39.268Z,7.50
2022-12-16T07:51:25.155Z,8.03
2022-12-16T07:54:10.404Z,8.20
2022-12-16T07:56:55.753Z,8.97
2022-12-16T07:59:40.847Z,7.83
2022-12-16T08:02:33.169Z,8.07
2022-12-16T08:05:18.528Z,8.00
2022-12-16T08:08:03.822Z,7.40
2022-12-16T08:10:49.036Z,8.07
2022-12-16T08:13:34.751Z,8.30
2022-12-16T08:16:20.493Z,7.87
2022-12-16T08:19:10.751Z,7.80
2022-12-16T08:21:56.917Z,7.50
2022-12-16T08:24:42.154Z,7.03
2022-12-16T08:27:27.842Z,6.63
2022-12-16T08:30:32.981Z,7.33
2022-12-16T08:36:24.657Z,7.57
2022-12-16T08:39:10.427Z,6.70
2022-12-16T08:41:55.729Z,8.10
2022-12-16T08:44:40.970Z,6.73
2022-12-16T08:47:26.227Z,7.07
2022-12-16T08:50:11.443Z,8.73
2022-12-16T08:52:57.253Z,44.83
2022-12-16T08:55:42.401Z,19.67
2022-12-16T08:58:27.467Z,9.43
2022-12-16T09:01:12.749Z,7.47
2022-12-16T09:03:58.490Z,6.83
2022-12-16T09:06:43.805Z,7.57
2022-12-16T09:09:29.178Z,8.40
2022-12-16T09:12:14.327Z,8.03
2022-12-16T09:14:59.871Z,7.30
2022-12-16T09:17:45.059Z,7.60
2022-12-16T09:20:40.929Z,7.37
2022-12-16T09:23:27.051Z,7.57
2022-12-16T09:26:15.428Z,8.63
2022-12-16T09:29:00.682Z,7.40
2022-12-16T09:31:45.821Z,6.83
2022-12-16T09:34:31.256Z,8.97
2022-12-16T09:37:16.441Z,35.90
2022-12-16T09:40:01.620Z,34.90
2022-12-16T09:43:34.679Z,12.63
2022-12-16T09:46:26.869Z,8.37
2022-12-16T09:49:34.032Z,9.00
2022-12-16T09:52:22.218Z,9.03
2022-12-16T09:55:08.066Z,7.70
2022-12-16T09:57:55.530Z,8.80
2022-12-16T10:00:46.609Z,9.77
2022-12-16T10:03:41.143Z,8.43
2022-12-16T10:06:54.777Z,7.87
2022-12-16T10:10:17.206Z,9.20
2022-12-16T10:13:11.748Z,8.17
2022-12-16T10:16:18.573Z,8.27
2022-12-16T10:19:36.511Z,8.47
2022-12-16T10:22:35.933Z,7.60
2022-12-16T10:25:44.735Z,8.57
2022-12-16T10:28:37.433Z,8.47
2022-12-16T10:31:34.932Z,7.70
2022-12-16T10:34:20.878Z,7.93
2022-12-16T10:37:13.199Z,6.93
2022-12-16T10:40:10.558Z,7.40
2022-12-16T10:43:05.385Z,7.33
2022-12-16T10:45:57.339Z,7.53
2022-12-16T10:48:55.122Z,7.87
2022-12-16T10:51:46.298Z,8.63
2022-12-16T10:54:53.795Z,9.57
2022-12-16T10:58:10.212Z,8.43
2022-12-16T11:01:07.436Z,9.43
2022-12-16T11:03:56.389Z,9.70
2022-12-16T11:06:53.893Z,7.73
2022-12-16T11:09:47.679Z,7.17
2022-12-16T11:12:44.893Z,8.00
2022-12-16T11:15:46.513Z,16.40
2022-12-16T11:18:40.556Z,13.70
2022-12-16T11:21:39.001Z,7.87
2022-12-16T11:24:38.051Z,7.10
2022-12-16T11:27:38.209Z,7.87
2022-12-16T11:30:40.908Z,9.30
2022-12-16T11:33:43.604Z,10.03
2022-12-16T11:36:43.545Z,8.40
2022-12-16T11:39:37.029Z,8.13
2022-12-16T11:42:25.191Z,8.07
2022-12-16T11:45:14.611Z,7.37
2022-12-16T11:48:14.409Z,7.80
2022-12-16T11:51:16.052Z,9.00
2022-12-16T11:54:18.525Z,7.53
2022-12-16T11:57:05.351Z,7.87
2022-12-16T12:00:26.814Z,7.97
2022-12-16T12:03:35.585Z,9.20
2022-12-16T12:06:41.983Z,7.90
2022-12-16T12:09:44.247Z,9.00
2022-12-16T12:12:46.537Z,8.93
2022-12-16T12:15:51.568Z,9.70
2022-12-16T12:19:07.183Z,8.23
2022-12-16T12:22:39.740Z,12.17
2022-12-16T12:25:42.005Z,8.50
2022-12-16T12:28:51.327Z,8.53
2022-12-16T12:32:07.085Z,48.03
2022-12-16T12:35:09.965Z,13.67
2022-12-16T12:38:06.358Z,10.57
2022-12-16T12:41:25.292Z,9.20
2022-12-16T12:44:48.516Z,9.67
2022-12-16T12:47:36.401Z,11.17
2022-12-16T12:50:28.282Z,11.53
2022-12-16T12:54:00.880Z,11.40
2022-12-16T12:57:07.526Z,11.63
2022-12-16T13:00:18.184Z,11.27
2022-12-16T13:03:28.594Z,11.00
2022-12-16T13:06:16.305Z,10.97
2022-12-16T13:09:07.778Z,10.53
2022-12-16T13:11:57.599Z,12.10
2022-12-16T13:14:51.975Z,11.30
2022-12-16T13:17:40.962Z,11.70
2022-12-16T13:20:55.410Z,11.93
2022-12-16T13:23:53.315Z,11.83
2022-12-16T13:26:41.963Z,13.00
2022-12-16T13:29:39.435Z,14.37
2022-12-16T13:32:30.744Z,12.73
2022-12-16T13:35:36.638Z,14.13
2022-12-16T13:38:21.879Z,14.53
2022-12-16T13:41:17.910Z,14.93
2022-12-16T13:44:06.684Z,14.47
2022-12-16T13:47:07.842Z,14.10
2022-12-16T13:49:56.161Z,13.90
2022-12-16T13:53:20.341Z,14.53
2022-12-16T13:56:19.324Z,13.43
2022-12-16T13:59:12.625Z,12.67
2022-12-16T14:02:17.027Z,13.63
2022-12-16T14:05:06.743Z,13.83
2022-12-16T14:07:56.279Z,13.20
2022-12-16T14:10:54.849Z,12.90
2022-12-16T14:13:59.375Z,13.87
2022-12-16T14:17:17.017Z,13.10
2022-12-16T14:20:33.277Z,12.13
2022-12-16T14:23:56.015Z,14.10
2022-12-16T14:26:39.371Z,14.77
2022-12-16T14:29:52.406Z,14.53
2022-12-16T14:32:54.027Z,13.70
2022-12-16T14:35:44.960Z,14.97
2022-12-16T14:38:47.554Z,15.20
2022-12-16T14:41:40.447Z,16.57
2022-12-16T14:44:43.009Z,15.57
2022-12-16T14:47:39.942Z,15.33
2022-12-16T14:50:47.961Z,15.70
2022-12-16T14:53:38.589Z,15.70
2022-12-16T14:56:42.426Z,14.77
2022-12-16T14:59:35.926Z,14.20
2022-12-16T15:03:00.844Z,15.83
2022-12-16T15:05:52.021Z,15.50
2022-12-16T15:08:39.504Z,13.87
2022-12-16T15:11:29.301Z,15.37
2022-12-16T15:14:18.673Z,14.17
2022-12-16T15:17:08.104Z,15.30
2022-12-16T15:20:03.978Z,14.90
2022-12-16T15:22:50.437Z,13.77
2022-12-16T15:25:45.799Z,15.90
2022-12-16T15:28:54.162Z,34.83
2022-12-16T15:31:49.621Z,25.00
2022-12-16T15:35:07.644Z,19.90
2022-12-16T15:38:04.299Z,19.30
2022-12-16T15:40:52.113Z,17.87
2022-12-16T15:43:54.812Z,18.03
2022-12-16T15:46:48.407Z,17.83
2022-12-16T15:50:02.114Z,19.03
2022-12-16T15:52:51.554Z,20.17
2022-12-16T15:56:02.557Z,19.80
2022-12-16T15:58:56.599Z,18.70
2022-12-16T16:01:47.090Z,19.97
2022-12-16T16:04:48.515Z,18.93
2022-12-16T16:07:38.258Z,18.13
2022-12-16T16:10:43.982Z,19.10
2022-12-16T16:13:30.052Z,18.30
2022-12-16T16:16:16.040Z,19.63
2022-12-16T16:19:02.277Z,18.20
2022-12-16T16:21:48.846Z,17.83
2022-12-16T16:24:35.065Z,18.80
2022-12-16T16:27:24.500Z,18.87
2022-12-16T16:30:09.684Z,19.40
2022-12-16T16:32:56.937Z,17.40
2022-12-16T16:35:42.151Z,17.20
2022-12-16T16:38:29.926Z,18.50
2022-12-16T16:41:15.648Z,17.90
2022-12-16T16:44:01.865Z,18.03
2022-12-16T16:46:56.391Z,22.00
2022-12-16T16:49:49.308Z,25.13
2022-12-16T16:52:41.562Z,24.07
2022-12-16T16:55:48.475Z,25.20
2022-12-16T16:58:44.346Z,24.80
2022-12-16T17:01:35.533Z,25.57
2022-12-16T17:04:22.093Z,25.60
2022-12-16T17:07:07.440Z,24.23
2022-12-16T17:09:52.701Z,24.73
2022-12-16T17:12:47.942Z,25.20
2022-12-16T17:16:04.118Z,22.57
2022-12-16T17:18:52.561Z,25.10
2022-12-16T17:21:38.212Z,22.37
2022-12-16T17:24:24.102Z,23.43
2022-12-16T17:27:09.485Z,22.53
2022-12-16T17:29:54.616Z,22.60
2022-12-16T17:32:40.015Z,22.97
2022-12-16T17:35:31.091Z,24.10
2022-12-16T17:38:16.392Z,24.10
2022-12-16T17:41:01.642Z,23.00
2022-12-16T17:43:47.546Z,22.37
2022-12-16T17:46:32.806Z,20.00
2022-12-16T17:49:18.187Z,22.37
2022-12-16T17:52:03.882Z,23.77
2022-12-16T17:54:49.258Z,27.93
2022-12-16T17:57:35.099Z,26.80
2022-12-16T18:00:20.939Z,26.50
2022-12-16T18:03:06.685Z,26.00
2022-12-16T18:05:52.037Z,26.80
2022-12-16T18:08:57.177Z,28.20
2022-12-16T18:11:42.514Z,25.97
2022-12-16T18:14:27.954Z,23.90
2022-12-16T18:17:13.666Z,22.23
2022-12-16T18:20:09.654Z,23.13
2022-12-16T18:22:55.272Z,24.57
2022-12-16T18:25:40.596Z,25.30
2022-12-16T18:28:25.667Z,23.77
2022-12-16T18:31:12.595Z,26.30
2022-12-16T18:33:57.790Z,25.43
2022-12-16T18:36:43.012Z,23.30
2022-12-16T18:39:30.293Z,23.50
2022-12-16T18:42:15.441Z,22.40
2022-12-16T18:45:01.456Z,20.80
2022-12-16T18:47:47.573Z,22.93
2022-12-16T18:50:37.476Z,20.87
2022-12-16T18:53:23.953Z,22.30
2022-12-16T18:56:25.313Z,22.70
2022-12-16T18:59:11.411Z,21.57
2022-12-16T19:01:58.243Z,21.67
2022-12-16T19:04:44.148Z,21.53
2022-12-16T19:07:33.408Z,21.20
2022-12-16T19:10:19.931Z,20.40
2022-12-16T19:13:05.279Z,21.00
2022-12-16T19:15:50.567Z,19.27
2022-12-16T19:18:36.862Z,22.17
2022-12-16T19:21:23.021Z,26.43
2022-12-16T19:24:08.298Z,20.60
2022-12-16T19:26:56.632Z,23.87
2022-12-16T19:29:43.021Z,23.13
2022-12-16T19:32:28.365Z,23.50
2022-12-16T19:35:13.915Z,23.13
2022-12-16T19:37:59.183Z,23.90
2022-12-16T19:40:44.464Z,22.23
2022-12-16T19:43:29.513Z,21.53
2022-12-16T19:46:15.259Z,20.67
2022-12-16T19:49:00.625Z,22.90
2022-12-16T19:51:47.454Z,21.00
2022-12-16T19:54:33.029Z,22.13
2022-12-16T19:57:18.152Z,21.50
2022-12-16T20:00:03.523Z,21.80
2022-12-16T20:02:48.910Z,21.70
2022-12-16T20:05:34.743Z,22.93
2022-12-16T20:08:20.020Z,21.80
2022-12-16T20:11:05.208Z,21.40
2022-12-16T20:13:50.885Z,21.90
2022-12-16T20:16:36.942Z,22.63
2022-12-16T20:19:22.108Z,21.33
2022-12-16T20:22:21.081Z,22.10
2022-12-16T20:25:06.389Z,21.70
2022-12-16T20:27:51.639Z,21.80
2022-12-16T20:30:37.441Z,20.70
2022-12-16T20:33:22.780Z,21.60
2022-12-16T20:36:19.520Z,19.90
2022-12-16T20:39:05.983Z,20.73
2022-12-16T20:41:51.797Z,21.03
2022-12-16T20:44:37.095Z,20.30
2022-12-16T20:47:23.065Z,20.97
2022-12-16T20:50:08.395Z,21.70
2022-12-16T20:52:54.964Z,22.07
2022-12-16T20:55:56.143Z,21.13
2022-12-16T20:58:41.514Z,19.73
2022-12-16T21:01:26.978Z,18.20
2022-12-16T21:04:12.181Z,19.60
2022-12-16T21:06:57.428Z,21.40
2022-12-16T21:09:42.498Z,18.27
2022-12-16T21:12:28.095Z,19.07
2022-12-16T21:15:13.227Z,20.00
2022-12-16T21:17:58.416Z,17.03
2022-12-16T21:20:43.531Z,19.97
2022-12-16T21:23:28.780Z,18.07
2022-12-16T21:26:17.912Z,17.63
2022-12-16T21:29:03.303Z,16.60
2022-12-16T21:31:48.485Z,15.50
2022-12-16T21:34:33.988Z,16.60
2022-12-16T21:37:19.083Z,15.27
2022-12-16T21:40:04.987Z,15.37
2022-12-16T21:42:50.408Z,16.00
2022-12-16T21:45:36.070Z,15.17
2022-12-16T21:48:21.341Z,14.97
2022-12-16T21:51:13.416Z,16.40
2022-12-16T21:54:02.116Z,21.70
2022-12-16T21:56:51.092Z,15.77
2022-12-16T21:59:37.154Z,16.60
2022-12-16T22:02:22.458Z,15.70
2022-12-16T22:05:07.665Z,16.50
2022-12-16T22:07:53.300Z,16.10
2022-12-16T22:10:41.401Z,16.57
2022-12-16T22:13:26.680Z,14.90
2022-12-16T22:16:17.190Z,14.60
2022-12-16T22:19:03.689Z,14.47
2022-12-16T22:21:48.921Z,17.43
2022-12-16T22:24:34.172Z,16.23
2022-12-16T22:27:19.428Z,15.40
2022-12-16T22:30:05.166Z,15.57
2022-12-16T22:32:50.397Z,15.00
2022-12-16T22:35:35.965Z,15.57
2022-12-16T22:38:21.203Z,20.67
2022-12-16T22:41:14.861Z,18.37
2022-12-16T22:44:00.633Z,16.80
2022-12-16T22:46:46.945Z,14.80
2022-12-16T22:49:33.011Z,18.00
2022-12-16T22:52:18.782Z,15.40
2022-12-16T22:55:04.079Z,15.77
2022-12-16T22:57:53.439Z,16.10
2022-12-16T23:00:39.731Z,15.63
2022-12-16T23:03:25.187Z,15.03
2022-12-16T23:06:10.489Z,16.37
2022-12-16T23:08:55.523Z,15.30
2022-12-16T23:11:56.618Z,15.70
2022-12-16T23:14:43.261Z,16.90
2022-12-16T23:17:32.085Z,15.60
2022-12-16T23:20:17.509Z,16.70
2022-12-16T23:23:02.760Z,15.87
2022-12-16T23:25:47.853Z,13.47
2022-12-16T23:28:33.161Z,13.60
2022-12-16T23:31:18.320Z,14.03
2022-12-16T23:34:03.889Z,13.40
2022-12-16T23:36:48.998Z,14.97
2022-12-16T23:39:34.160Z,15.30
2022-12-16T23:42:19.339Z,15.07
2022-12-16T23:45:24.246Z,15.57
2022-12-16T23:48:23.254Z,15.93
2022-12-16T23:51:08.628Z,16.20
2022-12-16T23:53:56.403Z,15.53
2022-12-16T23:56:43.079Z,15.53
2022-12-16T23:59:29.411Z,15.60
